createdAt,value
2023-02-02T00:01:56.926Z,0.97
2023-02-02T00:04:32.429Z,1.32
2023-02-02T00:07:02.996Z,1.35
2023-02-02T00:09:33.065Z,1.23
2023-02-02T00:12:01.932Z,1.42
2023-02-02T00:14:33.989Z,1.46
2023-02-02T00:17:02.238Z,1.37
2023-02-02T00:19:31.804Z,1.46
2023-02-02T00:22:00.378Z,1.35
2023-02-02T00:24:29.005Z,1.52
2023-02-02T00:27:00.005Z,1.57
2023-02-02T00:29:31.482Z,1.49
2023-02-02T00:31:59.498Z,1.49
2023-02-02T00:34:27.517Z,1.53
2023-02-02T00:36:55.887Z,1.45
2023-02-02T00:39:26.394Z,1.21
2023-02-02T00:41:56.653Z,1.42
2023-02-02T00:44:43.557Z,1.45
2023-02-02T00:47:12.227Z,1.41
2023-02-02T00:49:40.864Z,1.08
2023-02-02T00:52:09.338Z,1.14
2023-02-02T00:54:37.889Z,1.41
2023-02-02T00:57:05.989Z,1.41
2023-02-02T00:59:34.115Z,1.39
2023-02-02T01:02:02.776Z,1.33
2023-02-02T01:04:31.301Z,0.97
2023-02-02T01:06:59.407Z,0.95
2023-02-02T01:09:27.777Z,1.29
2023-02-02T01:11:56.153Z,1.31
2023-02-02T01:14:26.493Z,1.04
2023-02-02T01:16:57.659Z,1.28
2023-02-02T01:19:27.411Z,1.19
2023-02-02T01:21:55.475Z,0.98
2023-02-02T01:24:24.334Z,1.23
2023-02-02T01:26:52.784Z,1.17
2023-02-02T01:29:21.307Z,1.29
2023-02-02T01:31:50.707Z,1.27
2023-02-02T01:34:19.446Z,1.18
2023-02-02T01:36:47.640Z,1.47
2023-02-02T01:39:16.142Z,1.38
2023-02-02T01:41:44.726Z,1.38
2023-02-02T01:45:07.820Z,1.56
2023-02-02T01:47:43.872Z,1.22
2023-02-02T01:50:16.095Z,1.59
2023-02-02T01:52:48.634Z,1.49
2023-02-02T01:55:23.402Z,1.57
2023-02-02T01:58:24.643Z,1.55
2023-02-02T02:00:54.129Z,1.56
2023-02-02T02:03:26.938Z,1.55
2023-02-02T02:06:02.968Z,1.57
2023-02-02T02:08:39.795Z,1.45
2023-02-02T02:11:08.508Z,1.48
2023-02-02T02:13:57.577Z,1.25
2023-02-02T02:16:52.157Z,1.55
2023-02-02T02:20:26.212Z,1.56
2023-02-02T02:23:32.050Z,1.60
2023-02-02T02:26:57.696Z,1.59
2023-02-02T02:30:08.553Z,1.06
2023-02-02T02:32:52.552Z,1.59
2023-02-02T02:35:41.584Z,1.64
2023-02-02T02:38:31.783Z,1.64
2023-02-02T02:41:13.248Z,1.41
2023-02-02T02:43:52.721Z,1.54
2023-02-02T02:46:23.592Z,1.62
2023-02-02T02:48:52.789Z,1.61
2023-02-02T02:51:46.840Z,1.63
2023-02-02T02:54:34.837Z,1.61
2023-02-02T02:57:09.705Z,1.66
2023-02-02T02:59:59.446Z,1.64
2023-02-02T03:02:54.914Z,1.66
2023-02-02T03:06:00.181Z,1.67
2023-02-02T03:08:44.156Z,1.68
2023-02-02T03:11:15.567Z,1.40
2023-02-02T03:13:44.676Z,1.37
2023-02-02T03:16:15.023Z,1.40
2023-02-02T03:18:43.352Z,1.62
2023-02-02T03:21:12.583Z,1.56
2023-02-02T03:23:41.631Z,1.53
2023-02-02T03:26:10.280Z,1.26
2023-02-02T03:28:39.551Z,1.56
2023-02-02T03:31:08.043Z,1.55
2023-02-02T03:33:38.680Z,1.24
2023-02-02T03:36:07.673Z,1.28
2023-02-02T03:38:35.791Z,1.46
2023-02-02T03:41:05.632Z,1.46
2023-02-02T03:43:33.693Z,1.23
2023-02-02T03:46:04.944Z,1.38
2023-02-02T03:48:37.632Z,1.52
2023-02-02T03:51:14.616Z,1.20
2023-02-02T03:53:47.837Z,1.51
2023-02-02T03:56:16.993Z,1.46
2023-02-02T03:58:46.482Z,1.23
2023-02-02T04:01:15.729Z,1.56
2023-02-02T04:03:44.184Z,1.28
2023-02-02T04:06:12.352Z,1.48
2023-02-02T04:08:40.302Z,1.54
2023-02-02T04:11:11.196Z,1.49
2023-02-02T04:13:40.117Z,1.51
2023-02-02T04:16:08.346Z,1.52
2023-02-02T04:18:38.546Z,1.50
2023-02-02T04:21:08.984Z,1.22
2023-02-02T04:23:37.653Z,1.44
2023-02-02T04:26:05.986Z,1.27
2023-02-02T04:28:34.271Z,1.40
2023-02-02T04:31:02.378Z,1.39
2023-02-02T04:33:31.004Z,1.34
2023-02-02T04:35:59.236Z,1.15
2023-02-02T04:38:27.485Z,1.43
2023-02-02T04:40:55.707Z,1.30
2023-02-02T04:43:23.809Z,1.18
2023-02-02T04:45:57.919Z,1.47
2023-02-02T04:48:26.144Z,1.19
2023-02-02T04:51:07.465Z,1.46
2023-02-02T04:53:35.775Z,1.48
2023-02-02T04:56:07.760Z,1.51
2023-02-02T04:58:36.387Z,1.51
2023-02-02T05:01:18.384Z,1.48
2023-02-02T05:03:48.405Z,1.56
2023-02-02T05:06:17.806Z,1.23
2023-02-02T05:08:48.031Z,1.60
2023-02-02T05:11:20.093Z,1.52
2023-02-02T05:13:50.987Z,1.61
2023-02-02T05:16:19.832Z,1.55
2023-02-02T05:18:59.675Z,1.30
2023-02-02T05:21:28.080Z,1.64
2023-02-02T05:23:56.473Z,1.59
2023-02-02T05:26:27.226Z,1.65
2023-02-02T05:28:56.551Z,1.35
2023-02-02T05:31:24.620Z,1.60
2023-02-02T05:33:52.772Z,1.52
2023-02-02T05:36:20.936Z,1.56
2023-02-02T05:38:48.835Z,1.64
2023-02-02T05:41:16.788Z,1.65
2023-02-02T05:43:44.903Z,1.71
2023-02-02T05:46:12.922Z,1.58
2023-02-02T05:48:41.178Z,1.48
2023-02-02T05:51:20.413Z,1.60
2023-02-02T05:53:48.432Z,1.66
2023-02-02T05:56:16.658Z,1.37
2023-02-02T05:58:47.387Z,1.52
2023-02-02T06:01:16.635Z,1.33
2023-02-02T06:03:45.225Z,1.58
2023-02-02T06:06:14.064Z,1.38
2023-02-02T06:08:42.329Z,1.59
2023-02-02T06:11:16.342Z,1.61
2023-02-02T06:13:46.066Z,1.50
2023-02-02T06:16:14.347Z,1.63
2023-02-02T06:18:42.351Z,1.62
2023-02-02T06:21:11.280Z,1.62
2023-02-02T06:23:43.532Z,1.60
2023-02-02T06:26:17.423Z,1.31
2023-02-02T06:28:51.420Z,1.30
2023-02-02T06:31:20.577Z,1.27
2023-02-02T06:33:57.637Z,1.61
2023-02-02T06:36:28.316Z,1.39
2023-02-02T06:38:57.888Z,1.33
2023-02-02T06:41:26.338Z,1.41
2023-02-02T06:43:54.696Z,1.49
2023-02-02T06:46:22.679Z,1.32
2023-02-02T06:48:51.683Z,1.63
2023-02-02T06:51:20.036Z,1.43
2023-02-02T06:53:51.983Z,1.54
2023-02-02T06:56:19.871Z,1.79
2023-02-02T06:58:48.207Z,1.54
2023-02-02T07:01:16.461Z,1.83
2023-02-02T07:03:48.373Z,1.80
2023-02-02T07:06:19.611Z,1.91
2023-02-02T07:09:02.149Z,1.90
2023-02-02T07:11:40.101Z,1.99
2023-02-02T07:14:10.046Z,2.00
2023-02-02T07:16:38.459Z,2.03
2023-02-02T07:19:06.470Z,1.83
2023-02-02T07:21:37.523Z,2.17
2023-02-02T07:24:06.920Z,2.15
2023-02-02T07:26:36.591Z,1.89
2023-02-02T07:29:05.135Z,1.91
2023-02-02T07:31:36.045Z,2.22
2023-02-02T07:34:04.806Z,2.19
2023-02-02T07:36:32.923Z,1.98
2023-02-02T07:39:04.272Z,2.32
2023-02-02T07:41:36.113Z,2.28
2023-02-02T07:44:05.488Z,2.13
2023-02-02T07:46:33.508Z,2.36
2023-02-02T07:49:01.464Z,2.41
2023-02-02T07:51:29.935Z,2.17
2023-02-02T07:53:59.516Z,2.47
2023-02-02T07:56:28.590Z,2.49
2023-02-02T07:58:57.738Z,2.28
2023-02-02T08:01:27.926Z,1.95
2023-02-02T08:04:00.654Z,1.82
2023-02-02T08:06:35.917Z,1.64
2023-02-02T08:09:08.134Z,2.02
2023-02-02T08:11:38.279Z,2.21
2023-02-02T08:14:07.429Z,2.14
2023-02-02T08:16:36.131Z,2.41
2023-02-02T08:19:04.283Z,2.46
2023-02-02T08:21:38.199Z,2.51
2023-02-02T08:24:06.598Z,2.57
2023-02-02T08:26:34.956Z,2.69
2023-02-02T08:29:09.173Z,2.51
2023-02-02T08:31:43.500Z,2.81
2023-02-02T08:34:14.405Z,2.90
2023-02-02T08:36:42.651Z,2.84
2023-02-02T08:39:14.466Z,2.85
2023-02-02T08:41:42.851Z,2.85
2023-02-02T08:44:15.097Z,2.83
2023-02-02T08:46:43.543Z,2.50
2023-02-02T08:49:13.191Z,2.43
2023-02-02T08:51:43.234Z,2.13
2023-02-02T08:54:11.434Z,2.20
2023-02-02T08:56:39.422Z,2.05
2023-02-02T08:59:07.975Z,1.82
2023-02-02T09:01:36.932Z,2.09
2023-02-02T09:04:13.937Z,1.90
2023-02-02T09:06:43.689Z,1.98
2023-02-02T09:09:15.123Z,1.77
2023-02-02T09:11:43.662Z,2.31
2023-02-02T09:14:14.031Z,2.24
2023-02-02T09:16:42.958Z,2.04
2023-02-02T09:19:12.296Z,2.14
2023-02-02T09:21:40.874Z,1.67
2023-02-02T09:24:12.143Z,2.24
2023-02-02T09:26:41.317Z,2.29
2023-02-02T09:29:13.768Z,2.45
2023-02-02T09:31:42.455Z,2.35
2023-02-02T09:34:13.682Z,2.59
2023-02-02T09:36:43.403Z,2.69
2023-02-02T09:39:13.119Z,2.77
2023-02-02T09:41:41.076Z,2.76
2023-02-02T09:44:34.059Z,2.73
2023-02-02T09:48:02.758Z,2.68
2023-02-02T09:51:00.963Z,2.06
2023-02-02T09:53:56.093Z,2.07
2023-02-02T09:56:43.788Z,2.31
2023-02-02T09:59:26.456Z,2.41
2023-02-02T10:02:04.060Z,2.17
2023-02-02T10:04:40.189Z,2.34
2023-02-02T10:07:20.436Z,1.53
2023-02-02T10:10:03.112Z,2.16
2023-02-02T10:13:07.218Z,2.30
2023-02-02T10:16:17.158Z,2.31
2023-02-02T10:19:12.048Z,2.28
2023-02-02T10:21:57.512Z,2.25
2023-02-02T10:24:30.618Z,2.37
2023-02-02T10:27:27.072Z,2.11
2023-02-02T10:30:03.847Z,2.28
2023-02-02T10:32:42.967Z,2.32
2023-02-02T10:35:39.107Z,2.47
2023-02-02T10:38:47.117Z,2.45
2023-02-02T10:41:34.557Z,2.54
2023-02-02T10:44:33.833Z,2.62
2023-02-02T10:47:06.936Z,2.80
2023-02-02T10:49:39.312Z,2.73
2023-02-02T10:52:29.794Z,2.74
2023-02-02T10:55:10.918Z,2.88
2023-02-02T10:58:03.283Z,2.81
2023-02-02T11:00:51.350Z,2.86
2023-02-02T11:03:40.444Z,2.80
2023-02-02T11:06:27.260Z,2.25
2023-02-02T11:09:04.187Z,2.62
2023-02-02T11:11:42.608Z,2.69
2023-02-02T11:14:19.231Z,2.67
2023-02-02T11:17:05.341Z,2.11
2023-02-02T11:19:37.945Z,2.63
2023-02-02T11:22:06.040Z,2.29
2023-02-02T11:24:48.659Z,2.37
2023-02-02T11:27:41.560Z,2.68
2023-02-02T11:30:28.397Z,2.37
2023-02-02T11:32:56.573Z,2.63
2023-02-02T11:35:27.634Z,2.66
2023-02-02T11:38:15.007Z,2.51
2023-02-02T11:40:46.232Z,2.43
2023-02-02T11:43:42.874Z,2.54
2023-02-02T11:46:34.853Z,2.43
2023-02-02T11:49:10.396Z,2.42
2023-02-02T11:51:38.439Z,2.05
2023-02-02T11:54:25.813Z,2.33
2023-02-02T11:56:57.337Z,2.32
2023-02-02T11:59:39.706Z,2.37
2023-02-02T12:02:28.985Z,2.39
2023-02-02T12:05:20.093Z,2.47
2023-02-02T12:07:49.350Z,2.06
2023-02-02T12:10:30.063Z,2.32
2023-02-02T12:13:37.696Z,2.41
2023-02-02T12:16:53.886Z,2.60
2023-02-02T12:19:59.286Z,2.54
2023-02-02T12:22:42.007Z,2.25
2023-02-02T12:26:04.608Z,2.32
2023-02-02T12:28:59.886Z,2.31
2023-02-02T12:31:59.101Z,2.41
2023-02-02T12:34:44.663Z,2.50
2023-02-02T12:37:34.158Z,2.56
2023-02-02T12:40:22.455Z,2.60
2023-02-02T12:43:26.011Z,2.69
2023-02-02T12:46:21.588Z,2.72
2023-02-02T12:49:26.535Z,2.56
2023-02-02T12:52:11.345Z,2.58
2023-02-02T12:55:19.652Z,2.50
2023-02-02T12:58:07.583Z,2.18
2023-02-02T13:01:08.041Z,2.53
2023-02-02T13:04:07.653Z,2.47
2023-02-02T13:07:06.647Z,2.45
2023-02-02T13:10:22.149Z,2.46
2023-02-02T13:13:04.805Z,2.17
2023-02-02T13:15:38.151Z,2.33
2023-02-02T13:18:20.771Z,2.38
2023-02-02T13:21:19.036Z,2.32
2023-02-02T13:23:52.263Z,2.34
2023-02-02T13:26:27.415Z,2.39
2023-02-02T13:29:10.779Z,2.43
2023-02-02T13:31:44.228Z,2.35
2023-02-02T13:34:47.572Z,2.32
2023-02-02T13:37:42.799Z,2.29
2023-02-02T13:40:33.074Z,2.27
2023-02-02T13:43:29.639Z,2.27
2023-02-02T13:46:28.532Z,2.20
2023-02-02T13:49:11.280Z,2.21
2023-02-02T13:52:11.402Z,2.22
2023-02-02T13:55:13.717Z,2.20
2023-02-02T13:58:21.268Z,2.23
2023-02-02T14:00:55.409Z,2.23
2023-02-02T14:03:40.757Z,2.17
2023-02-02T14:06:22.641Z,2.19
2023-02-02T14:09:04.056Z,2.20
2023-02-02T14:11:42.695Z,2.18
2023-02-02T14:14:31.989Z,1.78
2023-02-02T14:17:19.602Z,2.19
2023-02-02T14:19:57.769Z,1.82
2023-02-02T14:22:52.223Z,2.05
2023-02-02T14:25:39.179Z,2.16
2023-02-02T14:28:33.586Z,2.05
2023-02-02T14:31:53.931Z,2.11
2023-02-02T14:34:39.785Z,1.79
2023-02-02T14:37:24.505Z,2.10
2023-02-02T14:40:07.497Z,1.83
2023-02-02T14:43:18.774Z,2.09
2023-02-02T14:45:49.422Z,1.87
2023-02-02T14:48:23.250Z,2.10
2023-02-02T14:50:53.453Z,1.85
2023-02-02T14:53:37.776Z,2.02
2023-02-02T14:56:11.631Z,2.02
2023-02-02T14:58:56.770Z,2.04
2023-02-02T15:01:30.137Z,2.06
2023-02-02T15:04:19.999Z,2.04
2023-02-02T15:06:53.079Z,1.98
2023-02-02T15:09:26.550Z,1.95
2023-02-02T15:12:03.565Z,1.91
2023-02-02T15:15:10.725Z,1.58
2023-02-02T15:17:49.148Z,1.85
2023-02-02T15:20:44.507Z,1.84
2023-02-02T15:23:40.583Z,1.68
2023-02-02T15:26:28.775Z,1.70
2023-02-02T15:29:03.258Z,1.49
2023-02-02T15:31:48.031Z,1.49
2023-02-02T15:34:20.973Z,1.66
2023-02-02T15:36:54.071Z,1.26
2023-02-02T15:39:30.919Z,1.55
2023-02-02T15:42:26.303Z,1.50
2023-02-02T15:44:54.543Z,1.26
2023-02-02T15:47:35.950Z,1.47
2023-02-02T15:50:20.780Z,1.46
2023-02-02T15:52:52.057Z,1.37
2023-02-02T15:55:32.177Z,1.12
2023-02-02T15:58:01.845Z,1.33
2023-02-02T16:00:36.148Z,0.75
2023-02-02T16:03:14.348Z,1.08
2023-02-02T16:05:57.102Z,1.32
2023-02-02T16:08:34.259Z,1.42
2023-02-02T16:11:17.010Z,1.32
2023-02-02T16:14:08.661Z,1.31
2023-02-02T16:16:40.220Z,1.03
2023-02-02T16:19:22.764Z,0.96
2023-02-02T16:22:02.234Z,1.24
2023-02-02T16:24:36.667Z,1.15
2023-02-02T16:27:10.907Z,0.86
2023-02-02T16:29:41.683Z,1.05
2023-02-02T16:32:34.585Z,0.98
2023-02-02T16:35:06.566Z,1.09
2023-02-02T16:37:36.950Z,1.06
2023-02-02T16:40:28.092Z,0.90
2023-02-02T16:43:16.901Z,0.70
2023-02-02T16:45:53.628Z,0.98
2023-02-02T16:48:37.325Z,0.92
2023-02-02T16:51:18.107Z,0.92
2023-02-02T16:54:01.978Z,1.06
2023-02-02T16:56:52.232Z,0.94
2023-02-02T16:59:30.748Z,1.19
2023-02-02T17:02:05.109Z,1.12
2023-02-02T17:04:35.522Z,1.30
2023-02-02T17:07:16.393Z,1.32
2023-02-02T17:09:48.323Z,1.14
2023-02-02T17:12:32.221Z,1.40
2023-02-02T17:15:25.061Z,1.44
2023-02-02T17:17:55.147Z,1.44
2023-02-02T17:20:23.592Z,1.45
2023-02-02T17:23:05.664Z,1.47
2023-02-02T17:25:43.148Z,1.43
2023-02-02T17:28:15.223Z,1.46
2023-02-02T17:30:46.462Z,1.46
2023-02-02T17:33:18.570Z,1.35
2023-02-02T17:35:54.928Z,1.43
2023-02-02T17:38:25.504Z,1.48
2023-02-02T17:40:55.786Z,1.06
2023-02-02T17:43:23.983Z,1.52
2023-02-02T17:45:52.443Z,1.29
2023-02-02T17:48:21.034Z,1.56
2023-02-02T17:50:49.431Z,1.31
2023-02-02T17:53:22.434Z,1.29
2023-02-02T17:55:52.243Z,1.59
2023-02-02T17:58:20.378Z,1.58
2023-02-02T18:00:57.064Z,1.53
2023-02-02T18:03:34.407Z,1.31
2023-02-02T18:06:05.636Z,1.54
2023-02-02T18:08:34.183Z,1.62
2023-02-02T18:11:02.845Z,1.53
2023-02-02T18:13:31.360Z,1.31
2023-02-02T18:16:00.108Z,1.54
2023-02-02T18:18:30.031Z,1.47
2023-02-02T18:20:59.202Z,1.36
2023-02-02T18:23:27.668Z,1.34
2023-02-02T18:25:58.397Z,1.32
2023-02-02T18:28:27.245Z,1.34
2023-02-02T18:30:56.082Z,1.31
2023-02-02T18:33:24.536Z,1.29
2023-02-02T18:35:53.141Z,0.99
2023-02-02T18:38:21.952Z,1.13
2023-02-02T18:40:58.018Z,1.25
2023-02-02T18:43:26.597Z,1.05
2023-02-02T18:46:07.536Z,1.23
2023-02-02T18:48:37.254Z,1.26
2023-02-02T18:51:07.242Z,1.06
2023-02-02T18:53:35.973Z,1.31
2023-02-02T18:56:09.266Z,1.06
2023-02-02T18:58:40.739Z,1.25
2023-02-02T19:01:18.368Z,1.00
2023-02-02T19:03:59.859Z,1.38
2023-02-02T19:06:47.267Z,1.35
2023-02-02T19:09:17.586Z,1.27
2023-02-02T19:11:49.172Z,1.33
2023-02-02T19:14:26.765Z,1.02
2023-02-02T19:17:22.619Z,1.30
2023-02-02T19:19:51.488Z,1.16
2023-02-02T19:22:23.871Z,1.10
2023-02-02T19:24:51.971Z,0.72
2023-02-02T19:27:23.818Z,0.71
2023-02-02T19:29:56.300Z,1.02
2023-02-02T19:32:27.612Z,1.09
2023-02-02T19:34:58.978Z,0.74
2023-02-02T19:37:32.673Z,0.74
2023-02-02T19:40:10.335Z,1.08
2023-02-02T19:42:47.221Z,1.04
2023-02-02T19:45:37.022Z,0.86
2023-02-02T19:48:27.358Z,1.02
2023-02-02T19:50:56.754Z,0.75
2023-02-02T19:53:38.621Z,0.78
2023-02-02T19:56:32.126Z,1.10
2023-02-02T19:59:01.323Z,1.00
2023-02-02T20:01:36.031Z,0.69
2023-02-02T20:04:06.066Z,0.48
2023-02-02T20:06:40.816Z,0.82
2023-02-02T20:09:21.199Z,0.80
2023-02-02T20:11:53.831Z,0.83
2023-02-02T20:14:34.093Z,0.88
2023-02-02T20:17:33.462Z,0.94
2023-02-02T20:20:02.333Z,0.93
2023-02-02T20:22:34.069Z,0.96
2023-02-02T20:25:09.493Z,0.81
2023-02-02T20:27:39.603Z,0.94
2023-02-02T20:30:28.316Z,0.94
2023-02-02T20:33:02.250Z,0.96
2023-02-02T20:35:43.471Z,0.98
2023-02-02T20:38:28.502Z,0.74
2023-02-02T20:41:00.264Z,0.92
2023-02-02T20:43:29.357Z,0.77
2023-02-02T20:45:58.062Z,0.99
2023-02-02T20:48:28.079Z,0.96
2023-02-02T20:50:56.805Z,0.99
2023-02-02T20:53:25.659Z,0.99
2023-02-02T20:55:58.896Z,0.99
2023-02-02T20:58:28.355Z,0.98
2023-02-02T21:00:58.075Z,0.92
2023-02-02T21:03:28.422Z,0.98
2023-02-02T21:05:58.818Z,0.97
2023-02-02T21:08:30.067Z,0.62
2023-02-02T21:11:00.899Z,0.90
2023-02-02T21:13:30.120Z,0.68
2023-02-02T21:15:59.590Z,0.74
2023-02-02T21:18:28.781Z,0.85
2023-02-02T21:20:59.357Z,0.87
2023-02-02T21:23:29.529Z,0.83
2023-02-02T21:25:58.400Z,0.88
2023-02-02T21:28:27.613Z,0.88
2023-02-02T21:30:57.396Z,0.88
2023-02-02T21:33:26.677Z,0.86
2023-02-02T21:35:59.074Z,0.66
2023-02-02T21:38:28.561Z,0.85
2023-02-02T21:40:58.445Z,0.88
2023-02-02T21:43:27.724Z,0.82
2023-02-02T21:45:57.578Z,0.91
2023-02-02T21:48:40.438Z,0.91
2023-02-02T21:51:33.122Z,0.96
2023-02-02T21:54:22.233Z,0.98
2023-02-02T21:56:54.037Z,0.76
2023-02-02T21:59:34.211Z,0.99
2023-02-02T22:02:39.741Z,0.92
2023-02-02T22:05:19.987Z,0.92
2023-02-02T22:07:51.468Z,0.77
2023-02-02T22:10:30.680Z,0.60
2023-02-02T22:12:59.155Z,0.39
2023-02-02T22:15:35.329Z,0.66
2023-02-02T22:18:16.366Z,0.72
2023-02-02T22:20:51.492Z,0.73
2023-02-02T22:23:27.683Z,0.77
2023-02-02T22:25:59.229Z,0.45
2023-02-02T22:28:40.153Z,0.61
2023-02-02T22:31:11.900Z,0.68
2023-02-02T22:33:40.406Z,0.64
2023-02-02T22:36:09.309Z,0.57
2023-02-02T22:38:38.509Z,0.68
2023-02-02T22:41:09.607Z,0.67
2023-02-02T22:43:38.208Z,0.62
2023-02-02T22:46:06.596Z,0.57
2023-02-02T22:48:36.069Z,0.60
2023-02-02T22:51:04.195Z,0.55
2023-02-02T22:53:33.039Z,0.53
2023-02-02T22:56:01.590Z,0.40
2023-02-02T22:58:29.955Z,0.45
2023-02-02T23:00:58.286Z,0.49
2023-02-02T23:03:26.447Z,0.41
2023-02-02T23:05:54.719Z,0.36
2023-02-02T23:08:23.398Z,0.29
2023-02-02T23:10:51.569Z,-0.54
2023-02-02T23:13:20.570Z,0.00
2023-02-02T23:15:49.227Z,0.15
2023-02-02T23:18:17.706Z,0.21
2023-02-02T23:20:48.963Z,0.15
2023-02-02T23:23:17.479Z,0.12
2023-02-02T23:25:45.606Z,0.06
2023-02-02T23:28:13.931Z,0.03
2023-02-02T23:30:42.764Z,0.04
2023-02-02T23:33:11.415Z,-0.02
2023-02-02T23:35:39.535Z,-0.19
2023-02-02T23:38:08.314Z,-0.31
2023-02-02T23:40:36.871Z,-0.12
2023-02-02T23:43:05.002Z,-0.15
2023-02-02T23:45:33.302Z,-0.38
2023-02-02T23:48:01.806Z,-0.15
2023-02-02T23:50:29.847Z,-0.20
2023-02-02T23:52:58.299Z,-0.26
2023-02-02T23:55:26.673Z,-0.53
2023-02-02T23:57:54.951Z,-0.58
